sensor_id;sensor_type;location;lat;lon;timestamp;pressure;altitude;pressure_sealevel;temperature;humidity
70684;BME280;58263;48.146;11.440;2023-12-07T00:00:22;95902.88;;;1.19;89.52
70684;BME280;58263;48.146;11.440;2023-12-07T00:02:47;95904.53;;;1.28;89.12
70684;BME280;58263;48.146;11.440;2023-12-07T00:05:12;95901.88;;;1.28;89.66
70684;BME280;58263;48.146;11.440;2023-12-07T00:07:38;95906.69;;;1.25;89.22
70684;BME280;58263;48.146;11.440;2023-12-07T00:10:03;95899.94;;;1.06;90.14
70684;BME280;58263;48.146;11.440;2023-12-07T00:12:29;95902.22;;;1.17;89.80
70684;BME280;58263;48.146;11.440;2023-12-07T00:14:54;95909.66;;;0.80;91.00
70684;BME280;58263;48.146;11.440;2023-12-07T00:17:19;95902.09;;;0.86;91.03
70684;BME280;58263;48.146;11.440;2023-12-07T00:19:45;95900.94;;;0.72;91.27
70684;BME280;58263;48.146;11.440;2023-12-07T00:22:10;95900.59;;;0.75;91.64
70684;BME280;58263;48.146;11.440;2023-12-07T00:24:35;95904.25;;;0.74;91.71
70684;BME280;58263;48.146;11.440;2023-12-07T00:27:00;95902.09;;;0.86;90.85
70684;BME280;58263;48.146;11.440;2023-12-07T00:29:26;95906.38;;;0.87;90.59
70684;BME280;58263;48.146;11.440;2023-12-07T00:31:51;95903.91;;;0.93;90.64
70684;BME280;58263;48.146;11.440;2023-12-07T00:34:17;95910.34;;;0.82;89.92
70684;BME280;58263;48.146;11.440;2023-12-07T00:36:42;95911.50;;;0.88;89.98
70684;BME280;58263;48.146;11.440;2023-12-07T00:39:07;95911.50;;;0.88;89.98
70684;BME280;58263;48.146;11.440;2023-12-07T00:41:33;95913.16;;;0.73;90.64
70684;BME280;58263;48.146;11.440;2023-12-07T00:43:59;95917.75;;;0.71;91.18
70684;BME280;58263;48.146;11.440;2023-12-07T00:46:24;95921.41;;;0.78;90.82
70684;BME280;58263;48.146;11.440;2023-12-07T00:48:49;95926.34;;;0.64;90.70
70684;BME280;58263;48.146;11.440;2023-12-07T00:51:14;95923.03;;;0.71;90.50
70684;BME280;58263;48.146;11.440;2023-12-07T00:53:41;95926.03;;;0.67;90.36
70684;BME280;58263;48.146;11.440;2023-12-07T00:56:06;95926.34;;;0.64;90.36
70684;BME280;58263;48.146;11.440;2023-12-07T00:58:32;95925.66;;;0.54;90.57
70684;BME280;58263;48.146;11.440;2023-12-07T01:00:57;95929.44;;;0.43;91.16
70684;BME280;58263;48.146;11.440;2023-12-07T01:03:22;95924.34;;;0.50;91.07
70684;BME280;58263;48.146;11.440;2023-12-07T01:05:47;95934.09;;;0.49;91.01
70684;BME280;58263;48.146;11.440;2023-12-07T01:08:13;95930.13;;;0.45;90.67
70684;BME280;58263;48.146;11.440;2023-12-07T01:10:38;95948.06;;;0.33;91.65
70684;BME280;58263;48.146;11.440;2023-12-07T01:13:04;95950.53;;;0.35;91.50
70684;BME280;58263;48.146;11.440;2023-12-07T01:15:30;95942.44;;;0.28;91.53
70684;BME280;58263;48.146;11.440;2023-12-07T01:17:56;95941.41;;;0.13;93.05
70684;BME280;58263;48.146;11.440;2023-12-07T01:20:21;95948.94;;;-0.01;93.30
70684;BME280;58263;48.146;11.440;2023-12-07T01:22:46;95944.53;;;0.00;93.58
70684;BME280;58263;48.146;11.440;2023-12-07T01:25:12;95950.63;;;0.01;92.78
70684;BME280;58263;48.146;11.440;2023-12-07T01:27:37;95952.91;;;-0.05;93.46
70684;BME280;58263;48.146;11.440;2023-12-07T01:30:03;95957.56;;;0.02;92.93
70684;BME280;58263;48.146;11.440;2023-12-07T01:32:29;95965.09;;;-0.04;92.94
70684;BME280;58263;48.146;11.440;2023-12-07T01:34:54;95971.50;;;-0.06;93.03
70684;BME280;58263;48.146;11.440;2023-12-07T01:37:19;95970.91;;;0.00;92.63
70684;BME280;58263;48.146;11.440;2023-12-07T01:39:45;95978.94;;;-0.02;92.98
70684;BME280;58263;48.146;11.440;2023-12-07T01:42:10;95983.16;;;-0.17;93.42
70684;BME280;58263;48.146;11.440;2023-12-07T01:44:37;95983.78;;;-0.23;94.02
70684;BME280;58263;48.146;11.440;2023-12-07T01:47:03;95981.97;;;-0.23;94.69
70684;BME280;58263;48.146;11.440;2023-12-07T01:49:29;95980.16;;;-0.22;93.93
70684;BME280;58263;48.146;11.440;2023-12-07T01:51:54;95979.59;;;-0.08;93.12
70684;BME280;58263;48.146;11.440;2023-12-07T01:54:21;95987.66;;;-0.09;92.63
70684;BME280;58263;48.146;11.440;2023-12-07T01:56:46;95987.50;;;-0.08;91.70
70684;BME280;58263;48.146;11.440;2023-12-07T01:59:12;95996.88;;;-0.13;91.43
70684;BME280;58263;48.146;11.440;2023-12-07T02:01:37;95989.03;;;-0.23;91.47
70684;BME280;58263;48.146;11.440;2023-12-07T02:04:03;95994.28;;;-0.31;92.71
70684;BME280;58263;48.146;11.440;2023-12-07T02:06:28;95993.75;;;-0.43;93.99
70684;BME280;58263;48.146;11.440;2023-12-07T02:08:53;95996.81;;;-0.48;94.75
70684;BME280;58263;48.146;11.440;2023-12-07T02:11:19;95990.56;;;-0.47;94.76
70684;BME280;58263;48.146;11.440;2023-12-07T02:13:44;95998.13;;;-0.52;95.09
70684;BME280;58263;48.146;11.440;2023-12-07T02:16:29;95997.66;;;-0.47;94.34
70684;BME280;58263;48.146;11.440;2023-12-07T02:19:16;96008.16;;;-0.56;95.40
70684;BME280;58263;48.146;11.440;2023-12-07T02:21:52;96008.97;;;-0.55;95.21
70684;BME280;58263;48.146;11.440;2023-12-07T02:24:21;96013.56;;;-0.57;95.60
70684;BME280;58263;48.146;11.440;2023-12-07T02:26:47;96013.25;;;-0.54;95.12
70684;BME280;58263;48.146;11.440;2023-12-07T02:29:12;96011.44;;;-0.54;94.87
70684;BME280;58263;48.146;11.440;2023-12-07T02:31:38;96006.00;;;-0.52;94.56
70684;BME280;58263;48.146;11.440;2023-12-07T02:34:03;96004.94;;;-0.68;95.00
70684;BME280;58263;48.146;11.440;2023-12-07T02:36:29;96001.94;;;-0.73;95.07
70684;BME280;58263;48.146;11.440;2023-12-07T02:38:58;96007.34;;;-0.74;94.72
70684;BME280;58263;48.146;11.440;2023-12-07T02:41:27;96011.34;;;-0.70;94.66
70684;BME280;58263;48.146;11.440;2023-12-07T02:43:53;96003.91;;;-0.75;95.32
70684;BME280;58263;48.146;11.440;2023-12-07T02:46:19;96016.38;;;-0.77;95.28
70684;BME280;58263;48.146;11.440;2023-12-07T02:48:44;96020.31;;;-0.81;95.20
70684;BME280;58263;48.146;11.440;2023-12-07T02:51:10;96018.94;;;-0.85;95.63
70684;BME280;58263;48.146;11.440;2023-12-07T02:53:35;96020.84;;;-0.77;95.26
70684;BME280;58263;48.146;11.440;2023-12-07T02:56:00;96017.97;;;-0.84;95.99
70684;BME280;58263;48.146;11.440;2023-12-07T02:58:26;96014.00;;;-0.88;96.37
70684;BME280;58263;48.146;11.440;2023-12-07T03:00:51;96031.53;;;-0.79;96.23
70684;BME280;58263;48.146;11.440;2023-12-07T03:03:16;96032.50;;;-0.80;96.19
70684;BME280;58263;48.146;11.440;2023-12-07T03:05:41;96027.59;;;-0.75;96.17
70684;BME280;58263;48.146;11.440;2023-12-07T03:08:07;96030.47;;;-0.68;96.25
70684;BME280;58263;48.146;11.440;2023-12-07T03:10:32;96031.28;;;-0.68;96.26
70684;BME280;58263;48.146;11.440;2023-12-07T03:12:57;96027.81;;;-0.68;96.44
70684;BME280;58263;48.146;11.440;2023-12-07T03:15:23;96035.19;;;-0.72;96.78
70684;BME280;58263;48.146;11.440;2023-12-07T03:17:49;96019.50;;;-0.55;95.59
70684;BME280;58263;48.146;11.440;2023-12-07T03:20:14;96029.22;;;-0.56;95.22
70684;BME280;58263;48.146;11.440;2023-12-07T03:22:41;96029.97;;;-0.63;95.73
70684;BME280;58263;48.146;11.440;2023-12-07T03:25:06;96035.31;;;-0.55;95.34
70684;BME280;58263;48.146;11.440;2023-12-07T03:27:31;96029.06;;;-0.54;94.96
70684;BME280;58263;48.146;11.440;2023-12-07T03:29:57;96032.34;;;-0.52;95.45
70684;BME280;58263;48.146;11.440;2023-12-07T03:32:22;96036.50;;;-0.49;95.18
70684;BME280;58263;48.146;11.440;2023-12-07T03:34:47;96036.06;;;-0.45;95.55
70684;BME280;58263;48.146;11.440;2023-12-07T03:37:13;96034.44;;;-0.38;94.92
70684;BME280;58263;48.146;11.440;2023-12-07T03:39:38;96031.13;;;-0.40;95.02
70684;BME280;58263;48.146;11.440;2023-12-07T03:42:03;96037.91;;;-0.37;94.92
70684;BME280;58263;48.146;11.440;2023-12-07T03:44:29;96034.59;;;-0.39;95.42
70684;BME280;58263;48.146;11.440;2023-12-07T03:46:54;96038.75;;;-0.37;95.65
70684;BME280;58263;48.146;11.440;2023-12-07T03:49:20;96033.09;;;-0.42;95.77
70684;BME280;58263;48.146;11.440;2023-12-07T03:51:45;96035.09;;;-0.36;95.27
70684;BME280;58263;48.146;11.440;2023-12-07T03:54:11;96038.44;;;-0.33;94.90
70684;BME280;58263;48.146;11.440;2023-12-07T03:56:36;96036.44;;;-0.31;94.77
70684;BME280;58263;48.146;11.440;2023-12-07T03:59:01;96030.69;;;-0.35;95.02
70684;BME280;58263;48.146;11.440;2023-12-07T04:01:28;96029.78;;;-0.44;95.49
70684;BME280;58263;48.146;11.440;2023-12-07T04:03:55;96029.34;;;-0.39;95.09
70684;BME280;58263;48.146;11.440;2023-12-07T04:06:24;96037.09;;;-0.38;94.32
70684;BME280;58263;48.146;11.440;2023-12-07T04:08:50;96033.09;;;-0.42;93.60
70684;BME280;58263;48.146;11.440;2023-12-07T04:11:15;96033.06;;;-0.50;93.71
70684;BME280;58263;48.146;11.440;2023-12-07T04:13:42;96040.94;;;-0.50;93.72
70684;BME280;58263;48.146;11.440;2023-12-07T04:16:08;96043.06;;;-0.54;93.22
70684;BME280;58263;48.146;11.440;2023-12-07T04:18:33;96043.97;;;-0.63;93.61
70684;BME280;58263;48.146;11.440;2023-12-07T04:20:59;96048.41;;;-0.63;93.71
70684;BME280;58263;48.146;11.440;2023-12-07T04:23:24;96051.38;;;-0.66;93.99
70684;BME280;58263;48.146;11.440;2023-12-07T04:25:50;96050.91;;;-0.62;93.12
70684;BME280;58263;48.146;11.440;2023-12-07T04:28:15;96051.53;;;-0.68;93.06
70684;BME280;58263;48.146;11.440;2023-12-07T04:30:40;96046.75;;;-0.64;92.75
70684;BME280;58263;48.146;11.440;2023-12-07T04:33:05;96055.66;;;-0.65;92.44
70684;BME280;58263;48.146;11.440;2023-12-07T04:35:31;96052.88;;;-0.64;92.57
70684;BME280;58263;48.146;11.440;2023-12-07T04:37:57;96058.22;;;-0.74;92.92
70684;BME280;58263;48.146;11.440;2023-12-07T04:40:23;96059.28;;;-0.84;93.25
70684;BME280;58263;48.146;11.440;2023-12-07T04:42:49;96073.88;;;-0.90;93.01
70684;BME280;58263;48.146;11.440;2023-12-07T04:45:15;96069.84;;;-0.84;93.55
70684;BME280;58263;48.146;11.440;2023-12-07T04:47:41;96066.88;;;-0.81;93.46
70684;BME280;58263;48.146;11.440;2023-12-07T04:50:07;96069.91;;;-0.76;93.15
70684;BME280;58263;48.146;11.440;2023-12-07T04:52:32;96071.03;;;-0.79;92.71
70684;BME280;58263;48.146;11.440;2023-12-07T04:54:58;96077.41;;;-0.81;92.78
70684;BME280;58263;48.146;11.440;2023-12-07T04:57:23;96069.59;;;-0.73;92.87
70684;BME280;58263;48.146;11.440;2023-12-07T04:59:49;96068.75;;;-0.74;92.63
70684;BME280;58263;48.146;11.440;2023-12-07T05:02:15;96075.50;;;-0.71;91.90
70684;BME280;58263;48.146;11.440;2023-12-07T05:04:41;96073.66;;;-0.79;91.74
70684;BME280;58263;48.146;11.440;2023-12-07T05:07:07;96073.03;;;-0.73;91.79
70684;BME280;58263;48.146;11.440;2023-12-07T05:09:32;96070.34;;;-0.81;91.23
70684;BME280;58263;48.146;11.440;2023-12-07T05:11:57;96070.09;;;-0.70;90.92
70684;BME280;58263;48.146;11.440;2023-12-07T05:14:23;96071.09;;;-0.71;91.07
70684;BME280;58263;48.146;11.440;2023-12-07T05:16:48;96078.00;;;-0.88;91.98
70684;BME280;58263;48.146;11.440;2023-12-07T05:19:19;96074.19;;;-0.93;92.71
70684;BME280;58263;48.146;11.440;2023-12-07T05:21:45;96073.06;;;-0.91;92.24
70684;BME280;58263;48.146;11.440;2023-12-07T05:24:12;96066.44;;;-0.95;91.76
70684;BME280;58263;48.146;11.440;2023-12-07T05:26:37;96063.28;;;-0.80;91.91
70684;BME280;58263;48.146;11.440;2023-12-07T05:29:02;96069.13;;;-0.87;91.97
70684;BME280;58263;48.146;11.440;2023-12-07T05:31:27;96065.09;;;-0.99;92.74
70684;BME280;58263;48.146;11.440;2023-12-07T05:33:53;96067.88;;;-1.00;92.00
70684;BME280;58263;48.146;11.440;2023-12-07T05:36:18;96066.50;;;-1.05;92.59
70684;BME280;58263;48.146;11.440;2023-12-07T05:38:43;96065.91;;;-0.98;92.46
70684;BME280;58263;48.146;11.440;2023-12-07T05:41:09;96061.09;;;-0.85;91.16
70684;BME280;58263;48.146;11.440;2023-12-07T05:43:34;96058.75;;;-0.88;91.27
70684;BME280;58263;48.146;11.440;2023-12-07T05:45:59;96071.16;;;-1.16;92.20
70684;BME280;58263;48.146;11.440;2023-12-07T05:48:25;96063.41;;;-1.18;92.98
70684;BME280;58263;48.146;11.440;2023-12-07T05:50:50;96067.97;;;-1.20;92.11
70684;BME280;58263;48.146;11.440;2023-12-07T05:53:15;96069.66;;;-1.19;91.89
70684;BME280;58263;48.146;11.440;2023-12-07T05:55:41;96063.63;;;-1.29;91.93
70684;BME280;58263;48.146;11.440;2023-12-07T05:58:06;96062.88;;;-1.22;92.42
70684;BME280;58263;48.146;11.440;2023-12-07T06:00:31;96061.81;;;-1.29;92.66
70684;BME280;58263;48.146;11.440;2023-12-07T06:02:57;96065.66;;;-1.23;91.77
70684;BME280;58263;48.146;11.440;2023-12-07T06:05:22;96062.94;;;-1.31;92.30
70684;BME280;58263;48.146;11.440;2023-12-07T06:07:47;96058.94;;;-1.54;92.11
70684;BME280;58263;48.146;11.440;2023-12-07T06:10:12;96063.22;;;-1.52;92.67
70684;BME280;58263;48.146;11.440;2023-12-07T06:12:38;96062.84;;;-1.40;92.51
70684;BME280;58263;48.146;11.440;2023-12-07T06:15:04;96060.84;;;-1.46;93.38
70684;BME280;58263;48.146;11.440;2023-12-07T06:17:32;96062.78;;;-1.48;92.06
70684;BME280;58263;48.146;11.440;2023-12-07T06:19:58;96064.75;;;-1.50;92.30
70684;BME280;58263;48.146;11.440;2023-12-07T06:22:23;96068.75;;;-1.56;93.13
70684;BME280;58263;48.146;11.440;2023-12-07T06:24:49;96076.13;;;-1.59;93.52
70684;BME280;58263;48.146;11.440;2023-12-07T06:27:15;96067.25;;;-1.58;93.31
70684;BME280;58263;48.146;11.440;2023-12-07T06:29:41;96071.25;;;-1.54;92.90
70684;BME280;58263;48.146;11.440;2023-12-07T06:32:06;96072.13;;;-1.63;91.63
70684;BME280;58263;48.146;11.440;2023-12-07T06:34:31;96069.56;;;-1.73;92.41
70684;BME280;58263;48.146;11.440;2023-12-07T06:36:56;96079.94;;;-1.81;92.14
70684;BME280;58263;48.146;11.440;2023-12-07T06:39:22;96082.47;;;-1.80;92.58
70684;BME280;58263;48.146;11.440;2023-12-07T06:41:47;96080.50;;;-1.78;92.98
70684;BME280;58263;48.146;11.440;2023-12-07T06:44:13;96078.56;;;-1.76;91.91
70684;BME280;58263;48.146;11.440;2023-12-07T06:46:38;96082.97;;;-1.76;92.33
70684;BME280;58263;48.146;11.440;2023-12-07T06:49:04;96083.53;;;-1.73;92.00
70684;BME280;58263;48.146;11.440;2023-12-07T06:51:29;96085.44;;;-1.65;92.02
70684;BME280;58263;48.146;11.440;2023-12-07T06:53:55;96083.13;;;-1.78;91.31
70684;BME280;58263;48.146;11.440;2023-12-07T06:56:20;96087.66;;;-1.70;90.94
70684;BME280;58263;48.146;11.440;2023-12-07T06:58:45;96087.84;;;-1.81;91.89
70684;BME280;58263;48.146;11.440;2023-12-07T07:01:11;96090.50;;;-1.91;91.95
70684;BME280;58263;48.146;11.440;2023-12-07T07:03:37;96088.59;;;-1.89;92.02
70684;BME280;58263;48.146;11.440;2023-12-07T07:06:03;96084.84;;;-1.87;91.82
70684;BME280;58263;48.146;11.440;2023-12-07T07:08:28;96083.03;;;-1.86;91.71
70684;BME280;58263;48.146;11.440;2023-12-07T07:10:53;96091.00;;;-2.06;91.90
70684;BME280;58263;48.146;11.440;2023-12-07T07:13:19;96094.41;;;-1.95;92.25
70684;BME280;58263;48.146;11.440;2023-12-07T07:15:45;96089.00;;;-1.94;92.26
70684;BME280;58263;48.146;11.440;2023-12-07T07:18:11;96092.47;;;-1.93;92.49
70684;BME280;58263;48.146;11.440;2023-12-07T07:20:36;96090.50;;;-1.91;92.54
70684;BME280;58263;48.146;11.440;2023-12-07T07:23:02;96094.69;;;-1.98;92.29
70684;BME280;58263;48.146;11.440;2023-12-07T07:25:27;96100.06;;;-1.90;92.21
70684;BME280;58263;48.146;11.440;2023-12-07T07:27:52;96100.88;;;-1.90;91.91
70684;BME280;58263;48.146;11.440;2023-12-07T07:30:20;96096.97;;;-1.76;91.77
70684;BME280;58263;48.146;11.440;2023-12-07T07:32:45;96104.41;;;-1.71;91.80
70684;BME280;58263;48.146;11.440;2023-12-07T07:35:10;96101.22;;;-1.75;91.38
70684;BME280;58263;48.146;11.440;2023-12-07T07:37:37;96104.00;;;-1.76;91.33
70684;BME280;58263;48.146;11.440;2023-12-07T07:40:03;96099.97;;;-1.71;91.14
70684;BME280;58263;48.146;11.440;2023-12-07T07:42:32;96102.47;;;-1.69;91.89
70684;BME280;58263;48.146;11.440;2023-12-07T07:44:57;96099.59;;;-1.48;90.18
70684;BME280;58263;48.146;11.440;2023-12-07T07:47:23;96103.59;;;-1.44;90.72
70684;BME280;58263;48.146;11.440;2023-12-07T07:49:48;96093.44;;;-1.57;91.38
70684;BME280;58263;48.146;11.440;2023-12-07T07:52:14;96105.72;;;-1.57;91.06
70684;BME280;58263;48.146;11.440;2023-12-07T07:54:39;96108.91;;;-1.54;91.56
70684;BME280;58263;48.146;11.440;2023-12-07T07:57:04;96098.38;;;-1.54;92.07
70684;BME280;58263;48.146;11.440;2023-12-07T07:59:30;96102.78;;;-1.44;91.86
70684;BME280;58263;48.146;11.440;2023-12-07T08:01:56;96103.13;;;-1.39;91.60
70684;BME280;58263;48.146;11.440;2023-12-07T08:04:21;96099.94;;;-1.33;91.48
70684;BME280;58263;48.146;11.440;2023-12-07T08:06:46;96094.09;;;-1.27;91.04
70684;BME280;58263;48.146;11.440;2023-12-07T08:09:12;96087.75;;;-1.16;90.63
70684;BME280;58263;48.146;11.440;2023-12-07T08:11:37;96085.06;;;-1.24;91.54
70684;BME280;58263;48.146;11.440;2023-12-07T08:14:02;96084.09;;;-1.23;91.41
70684;BME280;58263;48.146;11.440;2023-12-07T08:16:28;96088.47;;;-1.14;91.10
70684;BME280;58263;48.146;11.440;2023-12-07T08:18:53;96086.66;;;-1.13;90.53
70684;BME280;58263;48.146;11.440;2023-12-07T08:21:20;96086.72;;;-1.05;90.58
70684;BME280;58263;48.146;11.440;2023-12-07T08:23:45;96080.88;;;-0.99;90.36
70684;BME280;58263;48.146;11.440;2023-12-07T08:26:11;96088.84;;;-0.91;89.88
70684;BME280;58263;48.146;11.440;2023-12-07T08:28:42;96085.16;;;-0.80;89.18
70684;BME280;58263;48.146;11.440;2023-12-07T08:31:07;96075.34;;;-0.70;88.47
70684;BME280;58263;48.146;11.440;2023-12-07T08:33:33;96082.78;;;-0.47;87.85
70684;BME280;58263;48.146;11.440;2023-12-07T08:36:05;96082.41;;;-0.34;87.16
70684;BME280;58263;48.146;11.440;2023-12-07T08:38:31;96085.97;;;-0.43;86.84
70684;BME280;58263;48.146;11.440;2023-12-07T08:40:57;96077.31;;;-0.27;86.77
70684;BME280;58263;48.146;11.440;2023-12-07T08:43:23;96078.81;;;-0.25;86.10
70684;BME280;58263;48.146;11.440;2023-12-07T08:45:50;96078.94;;;-0.08;86.21
70684;BME280;58263;48.146;11.440;2023-12-07T08:48:15;96080.28;;;-0.04;85.75
70684;BME280;58263;48.146;11.440;2023-12-07T08:50:41;96078.06;;;-0.17;85.75
70684;BME280;58263;48.146;11.440;2023-12-07T08:53:06;96084.41;;;-0.02;85.31
70684;BME280;58263;48.146;11.440;2023-12-07T08:55:32;96086.06;;;-0.01;85.28
70684;BME280;58263;48.146;11.440;2023-12-07T08:57:57;96081.16;;;0.05;84.58
70684;BME280;58263;48.146;11.440;2023-12-07T09:00:24;96085.50;;;0.14;83.93
70684;BME280;58263;48.146;11.440;2023-12-07T09:02:50;96085.84;;;0.19;82.88
70684;BME280;58263;48.146;11.440;2023-12-07T09:05:17;96091.50;;;0.32;82.66
70684;BME280;58263;48.146;11.440;2023-12-07T09:07:43;96083.69;;;0.57;81.89
70684;BME280;58263;48.146;11.440;2023-12-07T09:10:09;96082.38;;;0.53;81.40
70684;BME280;58263;48.146;11.440;2023-12-07T09:12:34;96075.16;;;0.63;79.88
70684;BME280;58263;48.146;11.440;2023-12-07T09:15:01;96074.69;;;0.84;79.09
70684;BME280;58263;48.146;11.440;2023-12-07T09:17:26;96074.59;;;1.11;80.03
70684;BME280;58263;48.146;11.440;2023-12-07T09:19:52;96071.13;;;1.18;78.28
70684;BME280;58263;48.146;11.440;2023-12-07T09:22:18;96072.31;;;1.32;75.84
70684;BME280;58263;48.146;11.440;2023-12-07T09:24:45;96067.69;;;1.43;75.37
70684;BME280;58263;48.146;11.440;2023-12-07T09:27:15;96065.53;;;1.55;73.97
70684;BME280;58263;48.146;11.440;2023-12-07T09:29:40;96063.41;;;1.58;74.61
70684;BME280;58263;48.146;11.440;2023-12-07T09:32:07;96062.09;;;1.54;72.81
70684;BME280;58263;48.146;11.440;2023-12-07T09:34:32;96068.00;;;1.73;73.98
70684;BME280;58263;48.146;11.440;2023-12-07T09:37:08;96066.34;;;1.80;71.81
70684;BME280;58263;48.146;11.440;2023-12-07T09:39:34;96056.44;;;1.82;70.39
70684;BME280;58263;48.146;11.440;2023-12-07T09:41:59;96052.06;;;2.06;70.88
70684;BME280;58263;48.146;11.440;2023-12-07T09:44:25;96053.06;;;2.13;69.77
70684;BME280;58263;48.146;11.440;2023-12-07T09:46:50;96053.69;;;2.23;69.25
70684;BME280;58263;48.146;11.440;2023-12-07T09:49:16;96059.56;;;2.42;67.52
70684;BME280;58263;48.146;11.440;2023-12-07T09:51:42;96058.09;;;2.39;66.71
70684;BME280;58263;48.146;11.440;2023-12-07T09:54:08;96055.81;;;2.67;68.40
70684;BME280;58263;48.146;11.440;2023-12-07T09:56:34;96043.53;;;2.75;66.67
70684;BME280;58263;48.146;11.440;2023-12-07T09:58:59;96040.53;;;2.78;64.13
70684;BME280;58263;48.146;11.440;2023-12-07T10:01:29;96037.16;;;2.92;61.41
70684;BME280;58263;48.146;11.440;2023-12-07T10:04:14;96032.91;;;3.29;60.59
70684;BME280;58263;48.146;11.440;2023-12-07T10:06:43;96025.56;;;3.16;57.44
70684;BME280;58263;48.146;11.440;2023-12-07T10:09:13;96024.03;;;3.22;58.98
70684;BME280;58263;48.146;11.440;2023-12-07T10:11:39;96023.25;;;3.36;58.02
70684;BME280;58263;48.146;11.440;2023-12-07T10:14:07;96023.06;;;3.38;55.70
70684;BME280;58263;48.146;11.440;2023-12-07T10:16:33;96021.13;;;4.74;53.44
70684;BME280;58263;48.146;11.440;2023-12-07T10:19:15;96015.13;;;6.37;48.32
70684;BME280;58263;48.146;11.440;2023-12-07T10:21:44;96011.72;;;8.12;45.67
70684;BME280;58263;48.146;11.440;2023-12-07T10:24:10;96007.53;;;8.50;42.24
70684;BME280;58263;48.146;11.440;2023-12-07T10:26:37;96005.31;;;8.92;41.72
70684;BME280;58263;48.146;11.440;2023-12-07T10:29:06;96000.97;;;8.53;42.49
70684;BME280;58263;48.146;11.440;2023-12-07T10:31:32;96003.34;;;8.74;42.96
70684;BME280;58263;48.146;11.440;2023-12-07T10:34:01;95994.78;;;9.87;43.56
70684;BME280;58263;48.146;11.440;2023-12-07T10:36:26;95992.81;;;10.01;42.36
70684;BME280;58263;48.146;11.440;2023-12-07T10:38:52;95994.81;;;8.45;40.40
70684;BME280;58263;48.146;11.440;2023-12-07T10:41:19;95985.19;;;9.54;41.18
70684;BME280;58263;48.146;11.440;2023-12-07T10:43:54;95985.66;;;9.44;40.35
70684;BME280;58263;48.146;11.440;2023-12-07T10:46:21;95984.06;;;9.87;40.90
70684;BME280;58263;48.146;11.440;2023-12-07T10:48:47;95976.00;;;11.05;38.97
70684;BME280;58263;48.146;11.440;2023-12-07T10:51:41;95970.44;;;11.30;39.71
70684;BME280;58263;48.146;11.440;2023-12-07T10:54:07;95969.03;;;11.15;38.23
70684;BME280;58263;48.146;11.440;2023-12-07T10:56:44;95967.31;;;9.47;40.29
70684;BME280;58263;48.146;11.440;2023-12-07T10:59:11;95963.38;;;11.05;39.47
70684;BME280;58263;48.146;11.440;2023-12-07T11:01:40;95958.41;;;9.97;37.25
70684;BME280;58263;48.146;11.440;2023-12-07T11:04:06;95966.81;;;9.00;40.93
70684;BME280;58263;48.146;11.440;2023-12-07T11:06:35;95972.34;;;9.05;39.49
70684;BME280;58263;48.146;11.440;2023-12-07T11:09:04;95960.06;;;8.45;40.72
70684;BME280;58263;48.146;11.440;2023-12-07T11:11:36;95958.78;;;8.55;38.92
70684;BME280;58263;48.146;11.440;2023-12-07T11:14:06;95973.03;;;8.35;41.09
70684;BME280;58263;48.146;11.440;2023-12-07T11:16:36;95949.25;;;9.36;39.07
70684;BME280;58263;48.146;11.440;2023-12-07T11:19:03;95956.03;;;9.13;38.35
70684;BME280;58263;48.146;11.440;2023-12-07T11:21:30;95965.34;;;9.04;38.62
70684;BME280;58263;48.146;11.440;2023-12-07T11:23:59;95952.38;;;9.84;37.11
70684;BME280;58263;48.146;11.440;2023-12-07T11:26:26;95955.47;;;8.98;38.67
70684;BME280;58263;48.146;11.440;2023-12-07T11:28:51;95949.84;;;8.74;39.57
70684;BME280;58263;48.146;11.440;2023-12-07T11:31:17;95946.88;;;9.97;35.76
70684;BME280;58263;48.146;11.440;2023-12-07T11:33:43;95937.31;;;11.36;34.28
70684;BME280;58263;48.146;11.440;2023-12-07T11:36:09;95929.59;;;9.49;35.29
70684;BME280;58263;48.146;11.440;2023-12-07T11:38:39;95923.44;;;10.67;36.69
70684;BME280;58263;48.146;11.440;2023-12-07T11:41:23;95914.22;;;11.59;35.39
70684;BME280;58263;48.146;11.440;2023-12-07T11:43:50;95924.50;;;12.33;32.79
70684;BME280;58263;48.146;11.440;2023-12-07T11:46:18;95916.91;;;11.59;33.77
70684;BME280;58263;48.146;11.440;2023-12-07T11:48:46;95922.78;;;9.53;36.43
70684;BME280;58263;48.146;11.440;2023-12-07T11:51:12;95919.69;;;8.99;35.30
70684;BME280;58263;48.146;11.440;2023-12-07T11:53:37;95922.63;;;9.92;35.41
70684;BME280;58263;48.146;11.440;2023-12-07T11:56:05;95917.59;;;8.10;37.70
70684;BME280;58263;48.146;11.440;2023-12-07T11:58:32;95914.28;;;9.31;38.93
70684;BME280;58263;48.146;11.440;2023-12-07T12:00:58;95912.69;;;9.92;35.29
70684;BME280;58263;48.146;11.440;2023-12-07T12:03:25;95909.31;;;9.09;37.02
70684;BME280;58263;48.146;11.440;2023-12-07T12:05:50;95914.88;;;8.76;38.53
70684;BME280;58263;48.146;11.440;2023-12-07T12:08:16;95911.16;;;9.85;38.34
70684;BME280;58263;48.146;11.440;2023-12-07T12:10:43;95903.81;;;11.39;35.46
70684;BME280;58263;48.146;11.440;2023-12-07T12:13:08;95907.66;;;11.55;34.71
70684;BME280;58263;48.146;11.440;2023-12-07T12:15:34;95903.69;;;10.24;35.28
70684;BME280;58263;48.146;11.440;2023-12-07T12:18:00;95907.88;;;8.75;36.02
70684;BME280;58263;48.146;11.440;2023-12-07T12:20:26;95892.53;;;8.63;38.28
70684;BME280;58263;48.146;11.440;2023-12-07T12:22:52;95894.41;;;8.63;37.33
70684;BME280;58263;48.146;11.440;2023-12-07T12:25:22;95885.25;;;10.15;37.27
70684;BME280;58263;48.146;11.440;2023-12-07T12:27:52;95880.53;;;11.21;36.06
70684;BME280;58263;48.146;11.440;2023-12-07T12:30:17;95886.44;;;10.38;36.84
70684;BME280;58263;48.146;11.440;2023-12-07T12:32:43;95873.34;;;11.57;35.19
70684;BME280;58263;48.146;11.440;2023-12-07T12:35:09;95866.09;;;11.45;33.98
70684;BME280;58263;48.146;11.440;2023-12-07T12:37:35;95875.78;;;8.75;36.12
70684;BME280;58263;48.146;11.440;2023-12-07T12:40:07;95880.06;;;10.70;35.72
70684;BME280;58263;48.146;11.440;2023-12-07T12:42:33;95878.50;;;11.70;34.81
70684;BME280;58263;48.146;11.440;2023-12-07T12:44:59;95885.19;;;12.32;33.53
70684;BME280;58263;48.146;11.440;2023-12-07T12:47:25;95871.00;;;11.48;34.10